This is the latest recevied weather packets stored in our database for station/object IW4EGP-3. If no packets are shown the sender has not sent any weather packets the latest 10 day(s).
| Time | Temp. | Humidity | Pressure | Rain* | Wind** | Luminosity | Snow |
|---|---|---|---|---|---|---|---|
| 1787822108 | 31.11° C | 61% | 1018.3 hPa | 0 mm | - | - | - |
| 1787821257 | 32.22° C | 54% | 1018.7 hPa | 0 mm | - | - | - |
| 1787821207 | 32.22° C | 54% | 1018.7 hPa | 0 mm | - | - | - |
| 1787820306 | 30.56° C | 57% | 1018.5 hPa | 0 mm | - | - | - |
| 1787819483 | 30° C | 59% | 1018.7 hPa | 0 mm | - | - | - |
| 1787819410 | 30° C | 59% | 1018.7 hPa | 0 mm | - | - | - |
| 1787818555 | 28.89° C | 63% | 1018.8 hPa | 0 mm | - | - | - |
| 1787818508 | 28.89° C | 63% | 1018.8 hPa | 0 mm | - | - | - |
| 1787817695 | 28.33° C | 65% | 1018.9 hPa | 0 mm | - | - | - |
| 1787817660 | 28.33° C | 65% | 1018.9 hPa | 0 mm | - | - | - |
| 1787817606 | 28.33° C | 65% | 1018.9 hPa | 0 mm | - | - | - |
| 1787816787 | 28.33° C | 66% | 1018.7 hPa | 0 mm | - | - | - |
| 1787816743 | 28.33° C | 66% | 1018.7 hPa | 0 mm | - | - | - |
| 1787816707 | 28.33° C | 66% | 1018.7 hPa | 0 mm | - | - | - |
| 1787815333 | 28.33° C | 66% | 1018.9 hPa | 0 mm | - | - | - |
| 1787814431 | 26.67° C | 70% | 1018.8 hPa | 0 mm | - | - | - |
| 1787813534 | 26.11° C | 72% | 1018.6 hPa | 0 mm | - | - | - |
| 1787812668 | 25° C | 74% | 1018.9 hPa | 0 mm | - | - | - |
| 1787812635 | 25° C | 74% | 1018.9 hPa | 0 mm | - | - | - |
| 1787811733 | 24.44° C | 75% | 1018.8 hPa | 0 mm | - | - | - |
| 1787810831 | 23.89° C | 76% | 1018.8 hPa | 0 mm | - | - | - |
| 1787809975 | 23.89° C | 74% | 1018.6 hPa | 0 mm | - | - | - |
| 1787809934 | 23.89° C | 74% | 1018.6 hPa | 0 mm | - | - | - |
| 1787809033 | 23.33° C | 74% | 1018.7 hPa | 0 mm | - | - | - |
| 1787808135 | 22.22° C | 76% | 1018.5 hPa | 0 mm | - | - | - |
* Rain latest hour (hover to see other rain measurements)
** Current wind speed in m/s (hover to see current wind gust speed)